Time;durP1;ratioP1;P1;durP2;ratioP2;P2;SDS_P1;SDS_P2;PMS_P1;PMS_P2;Temp;Humidity;BMP_temperature;BMP_pressure;BME280_temperature;BME280_humidity;BME280_pressure;Samples;Min_cycle;Max_cycle;Signal;HPM_P1;HPM_P2
2021/07/12 00:02:15;;;;;;;2.75;1.27;;;24.80;56.60;;;;;;5069168;28;20036;-44
2021/07/12 00:04:40;;;;;;;1.70;1.05;;;24.80;56.50;;;;;;5070238;28;20028;-50
2021/07/12 00:07:06;;;;;;;2.47;1.45;;;24.80;56.50;;;;;;5068757;28;20028;-44
2021/07/12 00:09:31;;;;;;;1.30;1.10;;;24.80;56.50;;;;;;5050420;28;20153;-57
2021/07/12 00:11:57;;;;;;;1.30;1.10;;;24.80;56.50;;;;;;5068846;28;20032;-43
2021/07/12 00:14:23;;;;;;;2.08;1.20;;;24.80;56.50;;;;;;5069213;28;20025;-43
2021/07/12 00:16:48;;;;;;;1.75;1.05;;;24.80;56.40;;;;;;5067422;28;20024;-43
2021/07/12 00:19:14;;;;;;;1.60;1.10;;;24.70;56.30;;;;;;5068414;28;20027;-43
2021/07/12 00:21:41;;;;;;;1.73;1.23;;;24.80;56.40;;;;;;5066959;28;20097;-48
2021/07/12 00:24:07;;;;;;;3.08;1.13;;;24.80;56.50;;;;;;5068750;28;20029;-43
2021/07/12 00:26:33;;;;;;;1.73;1.25;;;24.80;56.40;;;;;;5069070;28;20424;-58
2021/07/12 00:28:58;;;;;;;1.42;1.05;;;24.80;56.40;;;;;;5067193;28;20029;-43
2021/07/12 00:31:24;;;;;;;1.83;1.17;;;24.80;56.30;;;;;;5062320;28;20052;-54
2021/07/12 00:33:49;;;;;;;2.53;1.15;;;24.80;56.40;;;;;;5069277;28;20608;-42
2021/07/12 00:36:15;;;;;;;1.50;1.25;;;24.70;56.30;;;;;;5060681;28;20151;-43
2021/07/12 00:38:40;;;;;;;2.85;1.08;;;24.70;56.20;;;;;;5067111;28;20429;-43
2021/07/12 00:41:06;;;;;;;1.30;1.02;;;24.70;56.20;;;;;;5057227;28;20032;-43
2021/07/12 00:43:34;;;;;;;2.45;1.20;;;24.70;56.20;;;;;;5061763;28;20016;-58
2021/07/12 00:46:00;;;;;;;1.63;1.30;;;24.70;56.30;;;;;;5061782;28;20476;-47
2021/07/12 00:48:25;;;;;;;2.15;1.63;;;24.70;56.20;;;;;;5063773;28;20032;-43
2021/07/12 00:50:51;;;;;;;1.60;1.00;;;24.70;56.20;;;;;;5056509;28;20036;-43
2021/07/12 00:53:17;;;;;;;1.60;1.17;;;24.70;56.20;;;;;;5073097;28;20032;-44
2021/07/12 00:55:49;;;;;;;2.25;1.15;;;24.70;56.20;;;;;;5065004;28;20100;-44
2021/07/12 00:58:21;;;;;;;1.85;1.10;;;24.70;56.20;;;;;;5062698;28;20037;-43
2021/07/12 01:00:48;;;;;;;;;;;24.70;56.20;;;;;;5055036;28;20060;-43
2021/07/12 01:03:14;;;;;;;3.00;0.88;;;24.70;56.20;;;;;;5054422;28;19909;-49
2021/07/12 01:05:42;;;;;;;3.13;1.33;;;24.70;56.20;;;;;;5064915;28;20110;-43
2021/07/12 01:08:07;;;;;;;1.40;1.17;;;24.70;56.20;;;;;;5067935;28;20041;-43
2021/07/12 01:10:34;;;;;;;1.70;1.30;;;24.70;56.10;;;;;;5068508;28;20032;-58
2021/07/12 01:13:21;;;;;;;3.05;1.20;;;24.70;56.20;;;;;;5070097;28;20033;-43
2021/07/12 01:16:00;;;;;;;1.55;1.38;;;24.70;56.20;;;;;;5061728;28;20120;-43
2021/07/12 01:18:40;;;;;;;2.55;1.10;;;24.70;56.10;;;;;;5062446;28;20032;-43
2021/07/12 01:21:37;;;;;;;4.18;1.50;;;24.70;56.10;;;;;;5052704;28;20359;-46
2021/07/12 01:24:23;;;;;;;1.92;1.30;;;24.70;56.10;;;;;;5064073;28;20074;-43
2021/07/12 01:27:25;;;;;;;2.63;1.20;;;24.70;56.10;;;;;;5059513;28;20036;-43
2021/07/12 01:30:03;;;;;;;1.40;1.10;;;24.60;56.10;;;;;;5051833;28;20063;-43
2021/07/12 01:32:50;;;;;;;2.17;1.13;;;24.60;56.10;;;;;;5066143;28;20119;-44
2021/07/12 01:35:47;;;;;;;3.45;1.42;;;24.60;56.10;;;;;;5053906;28;20469;-43
2021/07/12 01:38:42;;;;;;;1.40;1.10;;;24.60;56.10;;;;;;5058105;28;20021;-44
2021/07/12 01:41:42;;;;;;;1.20;1.00;;;24.60;56.10;;;;;;5051679;28;20059;-43
2021/07/12 01:45:02;;;;;;;1.50;1.30;;;24.60;56.10;;;;;;5064749;28;20070;-43
2021/07/12 01:47:44;;;;;;;1.60;1.10;;;24.60;56.00;;;;;;4980174;28;20034;-43
2021/07/12 01:50:31;;;;;;;1.50;1.13;;;24.60;56.10;;;;;;5051337;28;20481;-43
2021/07/12 01:53:24;;;;;;;1.92;1.17;;;24.60;56.10;;;;;;5053263;28;20045;-43
2021/07/12 01:56:15;;;;;;;3.42;1.23;;;24.60;56.30;;;;;;5062645;28;20470;-45
2021/07/12 01:58:47;;;;;;;1.55;1.10;;;24.60;56.50;;;;;;5056635;28;20025;-43
2021/07/12 02:01:14;;;;;;;1.77;1.23;;;24.60;56.30;;;;;;5058665;28;20060;-43
2021/07/12 02:03:42;;;;;;;2.05;1.10;;;24.60;56.20;;;;;;5061069;28;20401;-44
2021/07/12 02:06:10;;;;;;;3.88;1.15;;;24.60;56.10;;;;;;5056121;28;20064;-43
2021/07/12 02:08:43;;;;;;;2.33;1.20;;;24.60;55.90;;;;;;5068485;28;20029;-59
2021/07/12 02:11:09;;;;;;;2.17;1.20;;;24.60;56.00;;;;;;5059684;28;20041;-43
2021/07/12 02:13:39;;;;;;;1.95;1.42;;;24.60;55.90;;;;;;5064295;28;20458;-59
2021/07/12 02:16:05;;;;;;;4.47;1.48;;;24.60;56.00;;;;;;5053128;28;20474;-44
2021/07/12 02:18:33;;;;;;;3.70;1.38;;;24.60;56.00;;;;;;5056141;28;20025;-44
2021/07/12 02:21:00;;;;;;;1.48;1.10;;;24.50;55.90;;;;;;5059034;28;20020;-43
2021/07/12 02:23:27;;;;;;;2.35;1.23;;;24.60;55.90;;;;;;5062422;28;20390;-46
2021/07/12 02:25:53;;;;;;;1.33;1.10;;;24.60;55.90;;;;;;5070285;28;20032;-43
2021/07/12 02:28:19;;;;;;;1.83;1.38;;;24.60;56.00;;;;;;5069617;28;20029;-43
2021/07/12 02:30:46;;;;;;;2.28;1.40;;;24.60;56.00;;;;;;5065872;28;20033;-43
2021/07/12 02:33:14;;;;;;;1.90;1.27;;;24.50;55.90;;;;;;5063073;28;20127;-43
2021/07/12 02:35:41;;;;;;;3.17;1.30;;;24.50;55.90;;;;;;5067043;28;20432;-46
2021/07/12 02:38:08;;;;;;;2.15;1.30;;;24.50;55.80;;;;;;5070789;28;20112;-43
2021/07/12 02:40:34;;;;;;;2.95;1.30;;;24.60;55.80;;;;;;5069514;28;20047;-59
2021/07/12 02:43:02;;;;;;;2.03;1.40;;;24.50;55.70;;;;;;5057353;28;20032;-43
2021/07/12 02:45:30;;;;;;;2.85;1.20;;;24.50;55.70;;;;;;5066131;28;20075;-43
2021/07/12 02:47:56;;;;;;;1.80;1.40;;;24.50;55.80;;;;;;5069487;28;20020;-43
2021/07/12 02:50:22;;;;;;;2.83;1.10;;;24.50;55.70;;;;;;5064891;28;20032;-44
2021/07/12 02:53:05;;;;;;;1.60;1.10;;;24.50;55.70;;;;;;5072348;28;20578;-43
2021/07/12 02:55:31;;;;;;;1.10;1.00;;;24.50;55.80;;;;;;5063306;28;20032;-43
2021/07/12 02:57:56;;;;;;;3.05;1.30;;;24.50;55.70;;;;;;5062858;28;20618;-43
2021/07/12 03:00:22;;;;;;;1.92;1.10;;;24.50;56.30;;;;;;5069809;28;20509;-43
2021/07/12 03:02:48;;;;;;;1.42;1.00;;;24.60;55.70;;;;;;5062841;28;20049;-43
2021/07/12 03:05:14;;;;;;;2.55;1.38;;;24.50;55.70;;;;;;5062197;28;20036;-43
2021/07/12 03:08:01;;;;;;;1.98;1.05;;;24.50;55.70;;;;;;5058590;28;20457;-43
2021/07/12 03:10:30;;;;;;;1.98;1.40;;;24.50;55.70;;;;;;5061400;28;20079;-43
2021/07/12 03:13:04;;;;;;;1.63;1.10;;;24.50;55.70;;;;;;5059467;28;20162;-43
2021/07/12 03:15:41;;;;;;;1.67;1.00;;;24.50;55.60;;;;;;5062469;28;20047;-44
2021/07/12 03:18:20;;;;;;;2.17;1.20;;;24.50;55.70;;;;;;5067606;28;20044;-43
2021/07/12 03:20:47;;;;;;;2.25;1.85;;;24.50;55.50;;;;;;5054057;28;20035;-43
2021/07/12 03:23:15;;;;;;;2.38;1.25;;;24.50;55.70;;;;;;5066669;28;20073;-44
2021/07/12 03:25:46;;;;;;;1.55;1.20;;;24.50;55.70;;;;;;5067953;28;20065;-43
2021/07/12 03:28:13;;;;;;;2.13;1.30;;;24.50;55.70;;;;;;5061675;28;20033;-43
2021/07/12 03:30:40;;;;;;;1.23;1.10;;;24.50;55.60;;;;;;5053405;28;20037;-58
2021/07/12 03:33:07;;;;;;;1.65;0.98;;;24.50;55.60;;;;;;5068209;28;20461;-44
2021/07/12 03:35:46;;;;;;;2.47;1.20;;;24.50;55.60;;;;;;5056146;28;20056;-51
2021/07/12 03:38:17;;;;;;;2.15;1.20;;;24.50;55.60;;;;;;5066197;28;20056;-43
2021/07/12 03:40:43;;;;;;;1.98;1.52;;;24.50;55.60;;;;;;5054092;28;20029;-54
2021/07/12 03:43:11;;;;;;;3.30;1.30;;;24.50;55.60;;;;;;5063995;28;20394;-43
2021/07/12 03:45:41;;;;;;;2.63;1.30;;;24.50;55.60;;;;;;5057986;28;20031;-58
2021/07/12 03:48:08;;;;;;;1.80;1.30;;;24.50;55.60;;;;;;5061900;28;20025;-43
2021/07/12 03:50:33;;;;;;;2.28;1.30;;;24.50;55.60;;;;;;5056087;28;20364;-46
2021/07/12 03:53:03;;;;;;;1.80;1.10;;;24.50;55.50;;;;;;5064766;28;20035;-44
2021/07/12 03:55:31;;;;;;;1.63;1.10;;;24.50;55.60;;;;;;5063623;28;20036;-45
2021/07/12 03:57:58;;;;;;;1.17;1.00;;;24.50;55.60;;;;;;5058546;28;20326;-46
2021/07/12 04:00:26;;;;;;;2.58;1.55;;;24.50;55.40;;;;;;5054291;28;20136;-44
2021/07/12 04:02:52;;;;;;;1.50;1.08;;;24.50;55.50;;;;;;5068097;28;20549;-47
2021/07/12 04:05:20;;;;;;;1.98;1.30;;;24.50;55.50;;;;;;5055566;28;20111;-43
2021/07/12 04:07:46;;;;;;;2.90;1.33;;;24.50;55.50;;;;;;5066180;28;20048;-44
2021/07/12 04:10:13;;;;;;;3.00;1.27;;;24.50;55.50;;;;;;5056898;28;20061;-44
2021/07/12 04:12:41;;;;;;;2.20;1.27;;;24.50;55.40;;;;;;5061133;28;20033;-58
2021/07/12 04:15:07;;;;;;;1.92;1.15;;;24.50;55.50;;;;;;5057797;28;20032;-45
2021/07/12 04:17:34;;;;;;;2.83;2.05;;;24.50;55.50;;;;;;5063606;28;20037;-43
2021/07/12 04:20:01;;;;;;;2.05;1.10;;;24.50;55.40;;;;;;5069962;28;20028;-48
2021/07/12 04:22:27;;;;;;;1.92;1.73;;;24.50;55.40;;;;;;5067795;28;20086;-43
2021/07/12 04:24:53;;;;;;;1.88;1.27;;;24.50;55.50;;;;;;5063829;28;20025;-43
2021/07/12 04:27:19;;;;;;;1.85;0.90;;;24.50;55.40;;;;;;5060641;28;20033;-43
2021/07/12 04:29:45;;;;;;;3.55;1.48;;;24.50;55.30;;;;;;5067878;28;20044;-43
2021/07/12 04:32:11;;;;;;;2.45;1.17;;;24.50;55.40;;;;;;5058273;28;20045;-43
2021/07/12 04:34:37;;;;;;;1.52;1.20;;;24.50;55.30;;;;;;5060392;28;20056;-43
2021/07/12 04:37:03;;;;;;;1.65;1.00;;;24.50;55.40;;;;;;5061481;28;20025;-43
2021/07/12 04:39:29;;;;;;;2.80;1.20;;;24.40;55.40;;;;;;5054792;28;20040;-43
2021/07/12 04:41:55;;;;;;;2.95;1.30;;;24.50;55.40;;;;;;5065977;28;20484;-43
2021/07/12 04:44:21;;;;;;;2.65;1.55;;;24.40;55.20;;;;;;5058784;28;20033;-43
2021/07/12 04:46:49;;;;;;;1.88;1.15;;;24.50;55.30;;;;;;5056860;28;20021;-44
2021/07/12 04:49:15;;;;;;;1.92;1.30;;;24.40;55.30;;;;;;5057617;28;20040;-46
2021/07/12 04:51:40;;;;;;;2.30;1.10;;;24.50;55.30;;;;;;5072280;28;20036;-59
2021/07/12 04:54:06;;;;;;;1.40;1.30;;;24.50;55.30;;;;;;5059737;28;20029;-44
2021/07/12 04:56:33;;;;;;;1.98;1.20;;;24.40;55.30;;;;;;5065641;28;20074;-44
2021/07/12 04:59:00;;;;;;;1.95;1.25;;;24.40;55.40;;;;;;5062157;28;20020;-45
2021/07/12 05:01:27;;;;;;;2.60;1.15;;;24.50;55.50;;;;;;5068967;28;20059;-43
2021/07/12 05:03:53;;;;;;;2.65;1.40;;;24.50;55.50;;;;;;5056724;28;20436;-44
2021/07/12 05:06:19;;;;;;;1.50;1.20;;;24.40;55.50;;;;;;5068570;28;20017;-43
2021/07/12 05:08:44;;;;;;;1.83;1.40;;;24.40;55.50;;;;;;5060125;28;20469;-43
2021/07/12 05:11:10;;;;;;;2.83;1.58;;;24.50;56.10;;;;;;5063295;28;20048;-44
2021/07/12 05:13:37;;;;;;;3.13;1.20;;;24.40;55.50;;;;;;5055480;28;20044;-43
2021/07/12 05:16:03;;;;;;;1.65;1.25;;;24.40;55.50;;;;;;5065559;28;20029;-43
2021/07/12 05:18:29;;;;;;;2.22;1.13;;;24.40;55.50;;;;;;5054313;28;20029;-42
2021/07/12 05:20:56;;;;;;;1.77;1.50;;;24.50;55.60;;;;;;5064680;28;20110;-43
2021/07/12 05:23:22;;;;;;;1.60;1.20;;;24.40;55.50;;;;;;5064430;28;20036;-44
2021/07/12 05:25:48;;;;;;;1.60;1.30;;;24.40;55.60;;;;;;5051306;28;20033;-43
2021/07/12 05:28:13;;;;;;;1.80;1.50;;;24.40;55.80;;;;;;5051999;28;20440;-43
2021/07/12 05:30:39;;;;;;;5.07;2.03;;;24.40;55.90;;;;;;5054008;28;20031;-56
2021/07/12 05:33:06;;;;;;;4.38;2.00;;;23.70;56.00;;;;;;5059658;28;20037;-43
2021/07/12 05:35:31;;;;;;;4.20;2.60;;;22.90;58.40;;;;;;5069724;28;20033;-43
2021/07/12 05:37:57;;;;;;;7.45;2.50;;;22.50;59.50;;;;;;5062215;28;20043;-46
2021/07/12 05:40:23;;;;;;;6.50;2.53;;;22.30;60.30;;;;;;5061013;28;20028;-46
2021/07/12 05:42:48;;;;;;;6.28;2.33;;;22.20;60.90;;;;;;5065823;28;20094;-44
2021/07/12 05:45:14;;;;;;;4.38;2.15;;;22.10;61.10;;;;;;5046401;28;20112;-46
2021/07/12 05:47:40;;;;;;;9.00;2.25;;;22.00;61.30;;;;;;5069931;28;20029;-63
2021/07/12 05:50:07;;;;;;;5.47;2.10;;;22.00;61.50;;;;;;5043080;28;20024;-48
2021/07/12 05:52:35;;;;;;;8.77;3.15;;;22.00;61.50;;;;;;5058608;28;20033;-45
2021/07/12 05:55:01;;;;;;;5.60;2.20;;;22.00;61.80;;;;;;5063075;28;20021;-44
2021/07/12 05:57:27;;;;;;;3.78;2.40;;;22.10;61.80;;;;;;5057790;28;20044;-46
2021/07/12 05:59:52;;;;;;;8.43;2.30;;;22.00;62.00;;;;;;5072512;28;20048;-45
2021/07/12 06:02:18;;;;;;;7.43;2.28;;;22.10;61.70;;;;;;5066206;28;20037;-49
2021/07/12 06:04:44;;;;;;;5.82;2.53;;;22.10;61.80;;;;;;5055844;28;20031;-62
2021/07/12 06:07:10;;;;;;;3.53;2.38;;;22.20;61.60;;;;;;5073177;28;20106;-45
2021/07/12 06:09:36;;;;;;;4.25;2.40;;;22.20;61.60;;;;;;5074978;28;20393;-43
2021/07/12 06:12:02;;;;;;;3.00;1.90;;;22.30;61.60;;;;;;5074027;28;20028;-43
2021/07/12 06:14:28;;;;;;;4.35;2.15;;;22.20;61.20;;;;;;5074699;28;20043;-44
2021/07/12 06:16:54;;;;;;;3.22;1.42;;;22.30;61.40;;;;;;5061519;28;20024;-43
2021/07/12 06:19:19;;;;;;;7.63;1.80;;;22.40;60.80;;;;;;5071802;28;20077;-43
2021/07/12 06:21:45;;;;;;;5.85;1.52;;;22.80;60.00;;;;;;5060367;28;20033;-63
2021/07/12 06:24:10;;;;;;;3.35;1.75;;;23.10;59.90;;;;;;5072635;28;20393;-43
2021/07/12 06:26:36;;;;;;;2.92;1.50;;;23.30;58.90;;;;;;5054171;28;20089;-43
2021/07/12 06:29:02;;;;;;;3.25;1.65;;;23.30;58.70;;;;;;5070865;28;20032;-43
2021/07/12 06:31:28;;;;;;;2.00;1.55;;;23.50;58.50;;;;;;5062951;28;20048;-57
2021/07/12 06:33:53;;;;;;;3.45;1.45;;;23.50;58.30;;;;;;5071764;28;20082;-43
2021/07/12 06:36:19;;;;;;;1.88;1.13;;;23.60;58.10;;;;;;5057192;28;20055;-43
2021/07/12 06:38:45;;;;;;;3.17;1.38;;;23.60;58.10;;;;;;5068179;28;20032;-61
2021/07/12 06:41:10;;;;;;;3.78;1.52;;;23.70;58.20;;;;;;5062106;28;20036;-42
2021/07/12 06:43:36;;;;;;;6.15;2.28;;;23.80;58.00;;;;;;5075514;28;20073;-42
2021/07/12 06:46:02;;;;;;;2.15;1.17;;;23.70;58.00;;;;;;5064890;28;20039;-42
2021/07/12 06:48:28;;;;;;;2.20;0.93;;;23.70;57.90;;;;;;5067242;28;20045;-42
2021/07/12 06:50:54;;;;;;;1.33;1.20;;;23.70;58.10;;;;;;5054363;28;20029;-43
2021/07/12 06:53:20;;;;;;;2.80;1.08;;;23.70;58.00;;;;;;5064721;28;20033;-42
2021/07/12 06:55:45;;;;;;;2.72;1.25;;;23.70;58.00;;;;;;5067637;28;20035;-61
2021/07/12 06:58:12;;;;;;;3.33;1.48;;;23.70;58.00;;;;;;5061360;28;20029;-42
2021/07/12 07:00:39;;;;;;;2.72;1.33;;;23.70;58.00;;;;;;5063498;28;20453;-43
2021/07/12 07:03:05;;;;;;;3.83;1.30;;;23.80;58.00;;;;;;5068619;28;20036;-42
2021/07/12 07:05:32;;;;;;;1.77;1.23;;;23.80;58.00;;;;;;5059358;28;20049;-42
2021/07/12 07:07:58;;;;;;;2.63;1.10;;;23.80;58.00;;;;;;5054648;28;20033;-42
2021/07/12 07:10:24;;;;;;;2.40;1.25;;;23.90;58.10;;;;;;5062393;28;20083;-42
2021/07/12 07:12:50;;;;;;;3.50;1.27;;;23.90;58.00;;;;;;5063729;28;20118;-43
2021/07/12 07:15:15;;;;;;;2.33;1.30;;;23.90;58.00;;;;;;5067666;28;20112;-52
2021/07/12 07:17:41;;;;;;;3.45;1.52;;;23.90;57.90;;;;;;5064104;28;20097;-42
2021/07/12 07:20:07;;;;;;;1.83;1.02;;;24.00;57.90;;;;;;5063095;28;20469;-42
2021/07/12 07:22:33;;;;;;;2.17;1.20;;;24.00;57.80;;;;;;5073926;28;20036;-44
2021/07/12 07:24:59;;;;;;;2.22;1.40;;;24.00;57.80;;;;;;5070037;28;20067;-42
2021/07/12 07:27:24;;;;;;;0.98;0.88;;;24.00;57.80;;;;;;5060444;28;20381;-42
2021/07/12 07:29:50;;;;;;;1.92;1.10;;;24.10;57.90;;;;;;5056724;28;20039;-43
2021/07/12 07:32:16;;;;;;;2.58;1.30;;;24.00;57.80;;;;;;5072022;28;20090;-47
2021/07/12 07:34:43;;;;;;;1.48;0.98;;;24.10;57.90;;;;;;5056661;28;20478;-42
2021/07/12 07:37:09;;;;;;;2.22;0.98;;;24.10;57.90;;;;;;5058279;28;20035;-42
2021/07/12 07:39:36;;;;;;;2.58;1.35;;;24.10;58.00;;;;;;5070479;28;20115;-42
2021/07/12 07:42:02;;;;;;;2.67;1.13;;;24.10;58.00;;;;;;5055966;28;20039;-42
2021/07/12 07:44:28;;;;;;;1.48;0.90;;;24.10;58.00;;;;;;5064039;28;20032;-42
2021/07/12 07:46:53;;;;;;;1.77;0.90;;;24.10;58.00;;;;;;5068184;28;20065;-50
2021/07/12 07:49:19;;;;;;;1.88;1.00;;;24.10;58.10;;;;;;5069273;28;20036;-42
2021/07/12 07:51:45;;;;;;;1.58;1.00;;;24.10;58.10;;;;;;5055943;28;20040;-61
2021/07/12 07:54:11;;;;;;;3.50;0.90;;;24.10;58.10;;;;;;5066452;28;20044;-42
2021/07/12 07:56:38;;;;;;;1.98;1.02;;;24.10;58.00;;;;;;5055416;28;20459;-43
2021/07/12 07:59:05;;;;;;;1.65;0.93;;;24.10;58.00;;;;;;5051829;28;20029;-42
2021/07/12 08:01:31;;;;;;;3.03;1.10;;;24.20;58.00;;;;;;5080529;28;20081;-43
2021/07/12 08:03:57;;;;;;;1.20;0.82;;;24.20;58.00;;;;;;5072291;28;20469;-42
2021/07/12 08:06:23;;;;;;;2.70;0.95;;;24.20;58.00;;;;;;5052803;28;20030;-42
2021/07/12 08:08:49;;;;;;;1.33;0.93;;;24.20;58.00;;;;;;5068338;28;20048;-55
2021/07/12 08:11:15;;;;;;;1.45;1.20;;;24.20;57.80;;;;;;5044925;28;20160;-42
2021/07/12 08:13:41;;;;;;;1.92;1.10;;;24.20;57.80;;;;;;5062985;28;20036;-45
2021/07/12 08:16:07;;;;;;;2.63;1.10;;;24.20;57.80;;;;;;5055179;28;20039;-42
2021/07/12 08:18:33;;;;;;;1.17;0.98;;;24.20;57.80;;;;;;5060795;28;20029;-42
2021/07/12 08:20:59;;;;;;;1.80;0.90;;;24.20;57.80;;;;;;5068937;28;20494;-42
2021/07/12 08:23:26;;;;;;;2.95;1.08;;;24.20;57.80;;;;;;5064789;28;20035;-43
2021/07/12 08:25:52;;;;;;;2.20;1.13;;;24.20;57.90;;;;;;5069689;28;20499;-43
2021/07/12 08:28:18;;;;;;;1.10;0.90;;;24.20;57.90;;;;;;5072086;28;20032;-44
2021/07/12 08:30:45;;;;;;;1.75;1.00;;;24.20;57.90;;;;;;5070290;28;20044;-42
2021/07/12 08:33:11;;;;;;;1.42;0.93;;;24.20;57.80;;;;;;5057695;28;20175;-42
2021/07/12 08:35:37;;;;;;;1.25;0.93;;;24.20;57.80;;;;;;5053078;28;20037;-43
2021/07/12 08:38:04;;;;;;;1.15;0.80;;;24.20;58.50;;;;;;5053013;28;20450;-42
2021/07/12 08:40:30;;;;;;;1.77;0.95;;;24.20;58.00;;;;;;5051688;28;20029;-43
2021/07/12 08:42:57;;;;;;;1.80;1.00;;;24.20;58.00;;;;;;5067014;28;20032;-42
2021/07/12 08:45:24;;;;;;;1.63;0.98;;;24.20;57.90;;;;;;5061188;28;20056;-42
2021/07/12 08:47:51;;;;;;;3.38;1.17;;;24.30;57.90;;;;;;5057464;28;20378;-61
2021/07/12 08:50:18;;;;;;;1.65;1.10;;;24.30;57.90;;;;;;5061299;28;20037;-45
2021/07/12 08:52:46;;;;;;;1.60;0.85;;;24.30;57.90;;;;;;5060999;28;20036;-43
2021/07/12 08:55:12;;;;;;;0.90;0.75;;;24.30;57.90;;;;;;5062171;28;20085;-44
2021/07/12 08:57:39;;;;;;;0.88;0.77;;;24.30;57.90;;;;;;5065797;28;20111;-43
2021/07/12 09:00:09;;;;;;;2.60;1.13;;;24.30;57.90;;;;;;5057871;28;20048;-49
2021/07/12 09:02:37;;;;;;;1.20;0.90;;;24.30;57.90;;;;;;5044041;28;20111;-49
2021/07/12 09:05:06;;;;;;;1.60;0.80;;;24.30;57.90;;;;;;5058191;28;20025;-47
2021/07/12 09:07:32;;;;;;;1.35;1.20;;;24.30;57.90;;;;;;5063727;28;20036;-50
2021/07/12 09:10:14;;;;;;;2.00;1.00;;;24.30;57.90;;;;;;5059045;28;20378;-49
2021/07/12 09:12:45;;;;;;;1.73;1.05;;;24.30;57.90;;;;;;5088177;28;20381;-43
2021/07/12 09:15:14;;;;;;;1.58;0.95;;;24.30;57.90;;;;;;5091148;28;20024;-43
2021/07/12 09:17:48;;;;;;;2.35;1.00;;;24.30;57.90;;;;;;5055788;28;20020;-43
2021/07/12 09:20:26;;;;;;;1.08;0.90;;;24.30;57.90;;;;;;5060530;28;20052;-43
2021/07/12 09:22:52;;;;;;;1.50;0.90;;;24.30;58.00;;;;;;5062969;28;20048;-50
2021/07/12 09:25:18;;;;;;;1.38;0.80;;;24.30;57.80;;;;;;5051697;28;20482;-43
2021/07/12 09:27:44;;;;;;;0.85;0.75;;;24.30;57.80;;;;;;5063642;28;20028;-42
2021/07/12 09:30:18;;;;;;;2.92;0.98;;;24.30;57.70;;;;;;5067214;28;20029;-43
2021/07/12 09:32:46;;;;;;;1.63;1.25;;;24.30;57.70;;;;;;5061887;28;20032;-42
2021/07/12 09:35:17;;;;;;;2.03;1.00;;;24.30;58.00;;;;;;5060565;28;20025;-42
2021/07/12 09:37:45;;;;;;;1.25;0.90;;;24.30;57.60;;;;;;5057917;28;20490;-42
2021/07/12 09:40:20;;;;;;;3.17;1.10;;;24.30;57.50;;;;;;5052630;28;20025;-42
2021/07/12 09:42:48;;;;;;;0.90;0.80;;;24.30;57.50;;;;;;5053272;28;20029;-44
2021/07/12 09:45:17;;;;;;;1.02;0.88;;;24.30;57.50;;;;;;5060108;28;20470;-43
2021/07/12 09:47:44;;;;;;;1.52;1.15;;;24.30;57.40;;;;;;5060036;28;20049;-43
2021/07/12 09:50:19;;;;;;;1.25;1.00;;;24.30;57.50;;;;;;5067621;28;20036;-45
2021/07/12 09:52:50;;;;;;;1.00;0.88;;;24.30;57.50;;;;;;5063306;28;20363;-43
2021/07/12 09:55:24;;;;;;;1.10;0.80;;;24.30;57.40;;;;;;5054392;28;20040;-43
2021/07/12 09:58:15;;;;;;;1.10;1.00;;;24.30;57.60;;;;;;5060035;28;20086;-59
2021/07/12 10:00:41;;;;;;;1.60;0.93;;;24.30;57.80;;;;;;5058739;28;20410;-43
2021/07/12 10:03:07;;;;;;;2.08;0.90;;;24.30;58.70;;;;;;5064882;28;20051;-43
2021/07/12 10:05:33;;;;;;;2.47;1.45;;;24.30;59.30;;;;;;5062452;28;20029;-46
2021/07/12 10:08:00;;;;;;;1.90;0.90;;;24.30;59.70;;;;;;5069061;28;20028;-42
2021/07/12 10:10:26;;;;;;;1.85;1.10;;;24.30;59.80;;;;;;5067146;28;20029;-44
2021/07/12 10:12:53;;;;;;;2.13;0.90;;;24.30;60.10;;;;;;5064279;28;20036;-61
2021/07/12 10:15:19;;;;;;;1.65;0.90;;;24.30;60.40;;;;;;5059496;28;20090;-43
2021/07/12 10:17:46;;;;;;;2.03;1.15;;;24.30;60.60;;;;;;5070660;28;20033;-43
2021/07/12 10:20:14;;;;;;;3.63;1.00;;;24.30;60.80;;;;;;5070165;28;20024;-43
2021/07/12 10:22:42;;;;;;;1.33;1.10;;;24.30;60.90;;;;;;5070219;28;20036;-42
2021/07/12 10:25:19;;;;;;;1.42;1.00;;;24.30;61.70;;;;;;5068478;28;20037;-43
2021/07/12 10:28:00;;;;;;;1.60;0.90;;;24.30;62.00;;;;;;5060488;28;20029;-43
2021/07/12 10:30:34;;;;;;;1.20;0.90;;;24.30;62.60;;;;;;5058688;28;20112;-44
2021/07/12 10:33:06;;;;;;;1.60;0.95;;;24.30;63.00;;;;;;5058454;28;20082;-43
2021/07/12 10:35:39;;;;;;;1.23;0.80;;;24.30;63.30;;;;;;5054751;28;20112;-43
2021/07/12 10:38:05;;;;;;;1.55;1.02;;;24.30;62.80;;;;;;5062031;28;20472;-43
2021/07/12 10:40:55;;;;;;;1.45;1.00;;;24.30;63.20;;;;;;5069508;28;20033;-43
2021/07/12 10:43:35;;;;;;;1.20;0.90;;;24.30;63.30;;;;;;5062967;28;20473;-45
2021/07/12 10:46:01;;;;;;;2.33;0.88;;;24.30;62.90;;;;;;5068347;28;20021;-43
2021/07/12 10:48:38;;;;;;;2.47;1.67;;;24.30;62.50;;;;;;5061580;28;20032;-53
2021/07/12 10:51:34;;;;;;;1.50;1.05;;;24.30;62.60;;;;;;5061301;28;20024;-43
2021/07/12 10:54:14;;;;;;;1.88;1.33;;;24.40;62.70;;;;;;5031664;28;20059;-43
2021/07/12 10:56:50;;;;;;;1.33;0.88;;;24.40;63.10;;;;;;5054801;28;20029;-45
2021/07/12 10:59:37;;;;;;;2.25;1.00;;;24.30;64.00;;;;;;5060814;28;20503;-43
2021/07/12 11:02:26;;;;;;;2.22;1.50;;;24.30;63.40;;;;;;5064353;28;20423;-43
2021/07/12 11:05:05;;;;;;;4.95;2.97;;;24.40;64.00;;;;;;5062241;28;20029;-58
2021/07/12 11:07:48;;;;;;;2.20;1.27;;;24.40;64.30;;;;;;5054400;28;20370;-43
2021/07/12 11:10:22;;;;;;;2.45;1.65;;;24.40;64.30;;;;;;5054764;28;20021;-44
2021/07/12 11:13:03;;;;;;;1.88;1.48;;;24.50;64.90;;;;;;5053812;28;20036;-43
2021/07/12 11:15:40;;;;;;;1.55;1.33;;;24.40;65.00;;;;;;5070006;28;20032;-44
2021/07/12 11:18:09;;;;;;;1.70;1.30;;;24.40;65.10;;;;;;5061280;28;20419;-47
2021/07/12 11:20:54;;;;;;;2.15;1.42;;;24.40;65.10;;;;;;5055667;28;20061;-44
2021/07/12 11:23:42;;;;;;;1.80;1.10;;;24.40;65.20;;;;;;5057298;28;20039;-44
2021/07/12 11:26:23;;;;;;;1.88;1.25;;;24.40;65.20;;;;;;5068788;28;20161;-44
2021/07/12 11:28:54;;;;;;;2.45;1.60;;;24.40;65.30;;;;;;5068256;28;20052;-45
2021/07/12 11:31:38;;;;;;;2.92;1.52;;;24.40;65.40;;;;;;5070645;28;20119;-46
2021/07/12 11:34:24;;;;;;;2.85;1.05;;;24.40;65.30;;;;;;5058197;28;20032;-43
2021/07/12 11:36:58;;;;;;;2.88;1.25;;;24.40;65.50;;;;;;5071378;28;20036;-48
2021/07/12 11:39:27;;;;;;;1.83;1.15;;;24.40;65.70;;;;;;5065175;28;20025;-43
2021/07/12 11:41:53;;;;;;;2.08;1.35;;;24.40;65.80;;;;;;5059265;28;20060;-52
2021/07/12 11:44:20;;;;;;;1.42;1.08;;;24.40;65.60;;;;;;5053889;28;20056;-45
2021/07/12 11:46:46;;;;;;;2.42;1.25;;;24.40;65.70;;;;;;5060423;28;20515;-43
2021/07/12 11:49:15;;;;;;;1.90;1.13;;;24.40;65.50;;;;;;5062800;28;20389;-43
2021/07/12 11:51:41;;;;;;;1.92;1.20;;;24.40;65.90;;;;;;5056638;28;20024;-44
2021/07/12 11:54:16;;;;;;;3.13;1.20;;;24.40;65.60;;;;;;5069532;28;20461;-54
2021/07/12 11:57:03;;;;;;;1.88;1.20;;;24.40;65.70;;;;;;5063886;28;20477;-44
2021/07/12 11:59:34;;;;;;;2.95;1.40;;;24.40;66.00;;;;;;5044919;28;20073;-43
2021/07/12 12:02:19;;;;;;;2.13;1.58;;;24.40;65.70;;;;;;5062205;28;20389;-45
2021/07/12 12:04:45;;;;;;;1.30;1.20;;;24.40;66.10;;;;;;5064444;28;20584;-43
2021/07/12 12:07:23;;;;;;;2.55;1.48;;;24.40;65.40;;;;;;5058624;28;20035;-43
2021/07/12 12:09:57;;;;;;;1.95;1.10;;;24.40;66.40;;;;;;5063107;28;20035;-43
2021/07/12 12:12:27;;;;;;;5.10;1.55;;;24.40;66.30;;;;;;5060817;28;20056;-61
2021/07/12 12:14:58;;;;;;;1.25;0.95;;;24.40;66.00;;;;;;5066401;28;20028;-46
2021/07/12 12:17:24;;;;;;;1.63;1.20;;;24.40;66.30;;;;;;5054659;28;20033;-61
2021/07/12 12:20:11;;;;;;;1.80;1.30;;;24.50;66.50;;;;;;5055754;28;20100;-43
2021/07/12 12:22:37;;;;;;;3.33;1.80;;;24.50;66.40;;;;;;5061755;28;20041;-43
2021/07/12 12:25:05;;;;;;;2.08;1.52;;;24.50;66.40;;;;;;5068372;28;20111;-43
2021/07/12 12:27:31;;;;;;;1.42;1.10;;;24.50;66.50;;;;;;5060596;28;20021;-48
2021/07/12 12:29:57;;;;;;;1.92;1.23;;;24.50;66.10;;;;;;5070539;28;20029;-43
2021/07/12 12:32:31;;;;;;;2.67;1.20;;;24.50;66.10;;;;;;5071906;28;20082;-60
2021/07/12 12:35:00;;;;;;;2.35;1.02;;;24.50;66.10;;;;;;5071016;28;20040;-43
2021/07/12 12:37:36;;;;;;;1.40;1.00;;;24.50;66.40;;;;;;5068424;28;20036;-62
2021/07/12 12:40:18;;;;;;;2.22;1.17;;;24.50;66.50;;;;;;5068719;28;20381;-43
2021/07/12 12:42:45;;;;;;;2.60;1.30;;;24.50;66.60;;;;;;5062478;28;20103;-43
2021/07/12 12:45:11;;;;;;;1.40;1.02;;;24.50;66.70;;;;;;5069448;28;20031;-43
2021/07/12 12:47:37;;;;;;;2.78;1.30;;;24.50;66.90;;;;;;5058376;28;20033;-63
2021/07/12 12:50:17;;;;;;;5.78;1.70;;;24.50;67.00;;;;;;5065273;28;20350;-43
2021/07/12 12:52:43;;;;;;;1.55;1.30;;;24.50;67.00;;;;;;5056353;28;20082;-43
2021/07/12 12:55:12;;;;;;;1.83;1.30;;;24.50;67.10;;;;;;5057762;28;20028;-43
2021/07/12 12:57:40;;;;;;;1.80;1.20;;;24.50;67.10;;;;;;5059396;28;20409;-62
2021/07/12 13:00:11;;;;;;;1.95;1.20;;;24.50;67.10;;;;;;5034429;28;20418;-43
2021/07/12 13:02:39;;;;;;;1.90;1.13;;;24.50;67.40;;;;;;5050494;28;20029;-62